Time;durP1;ratioP1;P1;durP2;ratioP2;P2;SDS_P1;SDS_P2;PMS_P1;PMS_P2;Temp;Humidity;BMP_temperature;BMP_pressure;BME280_temperature;BME280_humidity;BME280_pressure;Samples;Min_cycle;Max_cycle;Signal;HPM_P1;HPM_P2
2021/12/10 00:01:55;;;;;;;42.95;13.90;;;;;;;1.31;88.33;99713.84;5004256;28;20089;-62
2021/12/10 00:04:29;;;;;;;30.95;12.80;;;;;;;1.27;88.32;99714.78;5003580;28;20133;-59
2021/12/10 00:06:56;;;;;;;43.40;14.52;;;;;;;1.30;88.45;99719.06;5001809;28;20326;-61
2021/12/10 00:09:34;;;;;;;36.30;11.90;;;;;;;1.35;88.36;99715.50;5023113;28;20021;-58
2021/12/10 00:12:07;;;;;;;42.55;12.68;;;;;;;1.41;88.56;99708.53;5021794;28;20063;-61
2021/12/10 00:14:34;;;;;;;34.50;13.27;;;;;;;1.44;88.20;99693.75;5022891;28;20045;-60
2021/12/10 00:17:01;;;;;;;36.50;12.40;;;;;;;1.53;88.06;99699.72;5022126;28;20559;-60
2021/12/10 00:19:38;;;;;;;29.75;12.55;;;;;;;1.58;88.16;99692.69;5022907;28;20025;-59
2021/12/10 00:22:09;;;;;;;33.25;12.35;;;;;;;1.62;87.83;99678.78;5023488;28;20026;-60
2021/12/10 00:24:37;;;;;;;32.25;11.77;;;;;;;1.63;87.75;99681.34;5023157;28;20171;-60
2021/12/10 00:27:05;;;;;;;40.22;12.75;;;;;;;1.63;87.18;99677.91;5021619;28;20124;-61
2021/12/10 00:29:32;;;;;;;37.92;12.85;;;;;;;1.65;87.09;99673.53;5022947;28;20037;-59
2021/12/10 00:32:03;;;;;;;28.70;11.88;;;;;;;1.73;87.39;99665.63;5021390;28;20032;-62
2021/12/10 00:34:37;;;;;;;33.92;12.35;;;;;;;1.74;87.24;99670.78;4998955;28;20372;-60
2021/12/10 00:37:08;;;;;;;27.17;12.65;;;;;;;1.75;86.91;99656.91;5015633;28;20029;-59
2021/12/10 00:39:39;;;;;;;46.75;13.65;;;;;;;1.79;86.82;99659.47;5023100;28;20084;-59
2021/12/10 00:42:07;;;;;;;29.58;14.25;;;;;;;1.79;86.50;99651.69;5021209;28;20033;-60
2021/12/10 00:44:33;;;;;;;30.40;14.38;;;;;;;1.82;86.61;99636.91;5023013;28;20036;-60
2021/12/10 00:46:58;;;;;;;31.75;13.70;;;;;;;1.85;86.24;99639.47;5005278;28;20037;-60
2021/12/10 00:49:24;;;;;;;30.10;14.27;;;;;;;1.86;85.93;99630.78;5023339;28;20032;-60
2021/12/10 00:51:50;;;;;;;32.00;14.13;;;;;;;1.85;85.62;99628.19;5003587;28;20355;-60
2021/12/10 00:54:15;;;;;;;27.55;13.20;;;;;;;1.87;86.00;99616.06;5023740;28;20031;-62
2021/12/10 00:56:41;;;;;;;28.95;12.70;;;;;;;1.87;85.89;99619.47;5008926;28;20026;-62
2021/12/10 00:59:11;;;;;;;27.80;14.50;;;;;;;1.87;86.05;99605.66;5006800;28;20033;-60
2021/12/10 01:01:36;;;;;;;;;;;;;;;1.89;85.94;99603.88;5026165;28;20037;-60
2021/12/10 01:04:18;;;;;;;29.73;12.73;;;;;;;1.89;85.64;99598.69;5026060;28;19917;-60
2021/12/10 01:06:47;;;;;;;31.88;13.57;;;;;;;1.85;85.77;99592.69;5017736;28;20076;-60
2021/12/10 01:09:22;;;;;;;33.72;14.32;;;;;;;1.81;85.32;99584.97;5021069;28;20036;-61
2021/12/10 01:11:52;;;;;;;31.50;12.43;;;;;;;1.81;85.87;99577.19;5006135;28;20141;-59
2021/12/10 01:14:33;;;;;;;32.53;14.50;;;;;;;1.75;85.54;99575.56;5019341;28;20045;-59
2021/12/10 01:25:26;;;;;;;38.50;15.45;;;;;;;1.51;85.62;99557.78;5027201;28;20049;-60
2021/12/10 01:27:51;;;;;;;31.38;15.98;;;;;;;1.45;85.86;99563.09;5025367;28;20108;-60
2021/12/10 01:30:23;;;;;;;31.10;14.73;;;;;;;1.41;85.79;99551.03;5024148;28;20101;-60
2021/12/10 01:32:54;;;;;;;26.58;14.70;;;;;;;1.40;85.89;99544.13;5025344;28;20025;-61
2021/12/10 01:35:24;;;;;;;37.10;15.57;;;;;;;1.33;85.67;99543.38;5043330;28;20060;-60
2021/12/10 01:37:51;;;;;;;30.40;15.70;;;;;;;1.34;85.72;99529.53;5027554;28;20063;-59
2021/12/10 01:40:20;;;;;;;40.92;17.63;;;;;;;1.30;85.72;99527.00;5034977;28;20116;-61
2021/12/10 01:42:48;;;;;;;38.30;16.15;;;;;;;1.29;85.81;99536.50;5045299;28;20040;-61
2021/12/10 01:45:22;;;;;;;35.85;14.45;;;;;;;1.30;85.91;99527.88;5037117;28;20040;-60
2021/12/10 01:48:00;;;;;;;38.28;15.45;;;;;;;1.28;85.81;99529.63;5025065;28;20064;-60
2021/12/10 01:50:27;;;;;;;23.08;12.73;;;;;;;1.28;85.77;99508.00;5031656;28;20489;-60
2021/12/10 01:52:56;;;;;;;25.38;12.98;;;;;;;1.31;85.46;99513.13;5045436;28;20056;-61
2021/12/10 01:55:23;;;;;;;31.92;13.80;;;;;;;1.28;85.81;99501.06;5039677;28;20468;-61
2021/12/10 01:57:49;;;;;;;20.70;12.55;;;;;;;1.25;85.57;99501.97;5025340;28;20036;-59
2021/12/10 02:00:15;;;;;;;30.38;13.38;;;;;;;1.25;85.63;99501.97;5024176;28;20130;-60
2021/12/10 02:02:44;;;;;;;27.45;13.52;;;;;;;1.23;85.82;99492.50;5026377;28;20033;-59
2021/12/10 02:05:10;;;;;;;30.60;13.00;;;;;;;1.23;85.94;99488.16;5007227;28;20025;-61
2021/12/10 02:07:36;;;;;;;25.98;12.45;;;;;;;1.24;85.68;99479.50;5043587;28;20114;-60
2021/12/10 02:10:05;;;;;;;22.80;11.32;;;;;;;1.24;85.61;99471.69;5044617;28;20025;-59
2021/12/10 02:12:30;;;;;;;26.98;11.95;;;;;;;1.23;85.57;99471.72;5028981;28;20053;-61
2021/12/10 02:15:01;;;;;;;25.08;11.90;;;;;;;1.26;85.69;99471.69;5024571;28;20123;-60
2021/12/10 02:17:30;;;;;;;25.95;10.13;;;;;;;1.28;85.74;99467.31;5024702;28;20050;-60
2021/12/10 02:19:55;;;;;;;35.35;12.50;;;;;;;1.36;85.65;99454.22;5025170;28;20425;-61
2021/12/10 02:22:21;;;;;;;22.38;10.15;;;;;;;1.35;85.30;99439.50;5036813;28;20503;-59
2021/12/10 02:24:46;;;;;;;22.95;9.65;;;;;;;1.35;85.46;99442.09;5045062;28;20036;-60
2021/12/10 02:27:11;;;;;;;28.92;10.20;;;;;;;1.37;85.25;99440.34;5034051;28;20065;-63
2021/12/10 02:29:38;;;;;;;32.15;9.50;;;;;;;1.37;85.26;99435.16;5025365;28;20549;-60
2021/12/10 02:32:09;;;;;;;14.52;8.63;;;;;;;1.41;85.17;99423.81;5023718;28;20025;-60
2021/12/10 02:34:34;;;;;;;25.30;9.38;;;;;;;1.43;85.32;99424.66;5007070;28;20279;-60
2021/12/10 02:37:00;;;;;;;20.65;9.32;;;;;;;1.41;85.24;99416.03;5023718;28;20447;-60
2021/12/10 02:39:26;;;;;;;19.13;9.13;;;;;;;1.44;84.85;99415.16;5024388;28;20025;-60
2021/12/10 02:41:52;;;;;;;27.88;9.15;;;;;;;1.42;84.81;99409.13;5023650;28;20033;-60
2021/12/10 02:44:22;;;;;;;15.85;8.25;;;;;;;1.46;84.76;99398.66;5024608;28;20026;-59
2021/12/10 02:46:47;;;;;;;19.00;7.50;;;;;;;1.49;84.95;99403.78;5001733;28;20037;-58
2021/12/10 02:49:14;;;;;;;17.23;7.75;;;;;;;1.53;84.81;99399.38;5005400;28;20076;-58
2021/12/10 02:51:40;;;;;;;15.30;7.30;;;;;;;1.60;84.55;99394.94;5005450;28;20030;-59
2021/12/10 02:54:09;;;;;;;14.77;6.50;;;;;;;1.62;84.47;99387.94;5025219;28;20049;-61
2021/12/10 02:56:35;;;;;;;23.37;8.23;;;;;;;1.67;84.07;99382.66;5006934;28;20022;-60
2021/12/10 02:59:01;;;;;;;20.73;7.65;;;;;;;1.66;84.07;99371.44;5003995;28;20368;-60
2021/12/10 03:01:37;;;;;;;11.35;6.93;;;;;;;1.70;84.17;99360.09;5018066;28;20075;-61
2021/12/10 03:04:07;;;;;;;13.35;5.80;;;;;;;1.74;83.78;99366.91;5024180;28;20113;-60
2021/12/10 03:06:34;;;;;;;12.65;5.57;;;;;;;1.70;83.42;99357.50;5022898;28;20503;-59
2021/12/10 03:08:59;;;;;;;13.90;5.75;;;;;;;1.75;83.54;99353.03;5023537;28;20100;-59
2021/12/10 03:11:31;;;;;;;14.15;5.75;;;;;;;1.81;83.52;99356.41;5021673;28;20321;-60
2021/12/10 03:13:57;;;;;;;15.82;5.57;;;;;;;1.85;83.44;99355.44;5024160;28;20360;-59
2021/12/10 03:16:23;;;;;;;14.05;5.70;;;;;;;1.89;82.78;99352.75;5022752;28;20449;-62
2021/12/10 03:18:49;;;;;;;18.80;5.68;;;;;;;1.91;83.00;99347.53;5023397;28;20113;-59
2021/12/10 03:21:15;;;;;;;11.82;5.57;;;;;;;1.96;83.05;99353.44;5023051;28;20116;-62
2021/12/10 03:23:43;;;;;;;13.25;5.70;;;;;;;2.01;83.15;99335.16;5023402;28;20061;-61
2021/12/10 03:26:13;;;;;;;16.27;6.30;;;;;;;2.00;83.37;99339.53;5022642;28;20458;-59
2021/12/10 03:28:40;;;;;;;15.82;5.68;;;;;;;2.01;83.64;99328.25;5024202;28;20056;-62
2021/12/10 03:31:06;;;;;;;10.93;4.75;;;;;;;1.99;84.29;99317.00;5022095;28;20013;-59
2021/12/10 03:33:32;;;;;;;14.95;5.60;;;;;;;1.97;84.24;99312.75;5024107;28;20029;-61
2021/12/10 03:35:57;;;;;;;20.88;5.97;;;;;;;1.96;84.79;99314.47;5022619;28;20065;-60
2021/12/10 03:38:24;;;;;;;11.05;5.05;;;;;;;1.97;84.71;99315.34;5024581;28;20021;-60
2021/12/10 03:40:51;;;;;;;19.27;5.80;;;;;;;1.97;84.92;99298.03;5023417;28;20026;-61
2021/12/10 03:43:18;;;;;;;13.85;5.82;;;;;;;1.95;85.20;99304.13;5023457;28;20021;-60
2021/12/10 03:45:47;;;;;;;13.18;5.45;;;;;;;1.92;85.51;99299.88;5023009;28;20353;-61
2021/12/10 03:48:15;;;;;;;18.88;5.65;;;;;;;1.94;85.52;99294.63;5023825;28;20460;-60
2021/12/10 03:50:42;;;;;;;14.27;5.00;;;;;;;1.90;85.51;99288.69;5023693;28;20033;-62
2021/12/10 03:53:08;;;;;;;14.68;5.05;;;;;;;1.94;85.44;99289.44;5023381;28;20103;-61
2021/12/10 03:55:33;;;;;;;10.13;4.50;;;;;;;1.95;85.57;99281.59;5023956;28;20026;-60
2021/12/10 03:57:59;;;;;;;13.77;4.47;;;;;;;1.96;85.39;99282.47;5022749;28;20360;-58
2021/12/10 04:00:29;;;;;;;14.07;5.43;;;;;;;1.94;85.52;99282.50;5022986;28;20029;-59
2021/12/10 04:02:55;;;;;;;10.07;4.28;;;;;;;1.96;85.51;99272.09;5022315;28;20041;-59
2021/12/10 04:05:21;;;;;;;11.32;5.05;;;;;;;1.96;85.19;99264.28;5023578;28;20495;-60
2021/12/10 04:07:46;;;;;;;22.50;5.75;;;;;;;1.97;85.45;99263.38;5022650;28;20036;-59
2021/12/10 04:10:14;;;;;;;14.10;5.38;;;;;;;1.93;85.53;99262.63;5024356;28;20080;-58
2021/12/10 04:12:39;;;;;;;11.55;4.85;;;;;;;1.89;85.91;99253.16;5022573;28;20484;-60
2021/12/10 04:15:06;;;;;;;15.13;5.80;;;;;;;1.91;85.85;99251.41;5021498;28;20069;-60
2021/12/10 04:17:31;;;;;;;13.95;4.65;;;;;;;1.93;85.41;99247.03;5025134;28;20134;-59
2021/12/10 04:19:57;;;;;;;8.65;4.45;;;;;;;1.94;85.34;99238.34;5007794;28;20111;-60
2021/12/10 04:22:24;;;;;;;14.02;3.85;;;;;;;1.95;85.64;99232.25;5024543;28;20029;-59
2021/12/10 04:24:51;;;;;;;13.85;5.30;;;;;;;1.94;85.16;99219.28;5022936;28;20383;-58
2021/12/10 04:27:17;;;;;;;13.68;4.20;;;;;;;1.96;85.20;99218.34;5022043;28;20028;-60
2021/12/10 04:29:43;;;;;;;13.68;3.90;;;;;;;1.93;85.23;99213.28;5025120;28;20025;-58
2021/12/10 04:32:10;;;;;;;13.25;3.97;;;;;;;1.94;85.24;99209.78;5025345;28;20021;-58
2021/12/10 04:34:35;;;;;;;11.77;4.03;;;;;;;1.95;85.05;99201.06;5027814;28;20044;-58
2021/12/10 04:37:05;;;;;;;10.68;3.38;;;;;;;2.01;84.99;99197.47;5026471;28;20029;-58
2021/12/10 04:39:34;;;;;;;11.02;3.35;;;;;;;2.02;85.08;99192.22;5027938;28;20128;-57
2021/12/10 04:41:59;;;;;;;9.57;3.35;;;;;;;2.00;84.70;99191.44;5026379;28;20072;-59
2021/12/10 04:44:26;;;;;;;8.63;3.40;;;;;;;2.02;84.79;99192.22;5027469;28;20021;-56
2021/12/10 04:46:52;;;;;;;16.33;3.70;;;;;;;2.04;84.67;99188.75;5025706;28;20034;-58
2021/12/10 04:49:17;;;;;;;12.32;4.10;;;;;;;2.04;84.46;99187.00;5027138;28;20067;-54
2021/12/10 04:51:53;;;;;;;8.60;3.28;;;;;;;2.08;84.48;99187.78;5026849;28;20445;-56
2021/12/10 04:54:20;;;;;;;9.88;3.25;;;;;;;2.10;84.36;99175.59;5027994;28;20117;-56
2021/12/10 04:56:46;;;;;;;11.48;3.10;;;;;;;2.12;83.94;99173.81;5027609;28;20470;-60
2021/12/10 04:59:15;;;;;;;10.38;3.63;;;;;;;2.12;84.08;99177.28;5048383;28;20029;-58
2021/12/10 05:01:41;;;;;;;15.50;3.22;;;;;;;2.16;83.97;99159.84;5045894;28;20025;-57
2021/12/10 05:04:07;;;;;;;10.82;2.72;;;;;;;2.18;83.85;99152.88;5009378;28;20114;-59
2021/12/10 05:06:34;;;;;;;8.90;2.75;;;;;;;2.20;84.08;99153.66;5006349;28;20022;-57
2021/12/10 05:08:59;;;;;;;6.10;2.88;;;;;;;2.22;83.56;99154.50;5040640;28;20318;-59
2021/12/10 05:11:24;;;;;;;13.90;2.70;;;;;;;2.22;83.89;99148.44;5045799;28;20040;-59
2021/12/10 05:13:50;;;;;;;5.72;2.33;;;;;;;2.25;83.53;99148.34;5030650;28;20075;-59
2021/12/10 05:16:17;;;;;;;8.75;2.65;;;;;;;2.30;83.18;99151.69;5025714;28;20032;-56
2021/12/10 05:18:46;;;;;;;5.65;2.35;;;;;;;2.33;83.36;99150.75;5026247;28;20022;-59
2021/12/10 05:21:13;;;;;;;4.95;2.00;;;;;;;2.36;82.77;99148.06;5027122;28;20093;-59
2021/12/10 05:23:38;;;;;;;7.03;2.05;;;;;;;2.38;82.67;99154.09;5004514;28;20030;-58
2021/12/10 05:26:05;;;;;;;10.43;2.60;;;;;;;2.41;82.41;99143.59;5006571;28;20239;-60
2021/12/10 05:28:30;;;;;;;5.60;1.80;;;;;;;2.44;82.48;99143.50;5027437;28;20112;-59
2021/12/10 05:30:56;;;;;;;6.32;2.20;;;;;;;2.49;82.34;99140.78;5024788;28;20454;-59
2021/12/10 05:33:23;;;;;;;8.02;2.22;;;;;;;2.44;82.34;99140.06;5025295;28;20116;-59
2021/12/10 05:35:50;;;;;;;5.72;2.20;;;;;;;2.43;82.53;99136.59;5025975;28;20021;-59
2021/12/10 05:38:17;;;;;;;5.43;2.13;;;;;;;2.46;82.26;99128.72;5025197;28;20025;-59
2021/12/10 05:40:44;;;;;;;10.10;2.58;;;;;;;2.51;82.03;99139.00;5019015;28;20416;-60
2021/12/10 05:43:09;;;;;;;5.00;1.85;;;;;;;2.49;81.66;99136.44;5016157;28;20673;-58
2021/12/10 05:45:34;;;;;;;6.47;2.00;;;;;;;2.52;81.87;99136.34;5015462;28;20117;-58
2021/12/10 05:48:00;;;;;;;7.65;2.25;;;;;;;2.50;81.57;99132.94;5015751;28;20354;-59
2021/12/10 05:50:27;;;;;;;7.65;1.88;;;;;;;2.55;81.76;99135.41;5014668;28;20431;-60
2021/12/10 05:52:53;;;;;;;7.13;1.95;;;;;;;2.55;81.84;99134.53;5024086;28;20029;-59
2021/12/10 05:55:20;;;;;;;9.95;1.95;;;;;;;2.56;81.47;99136.28;5026286;28;20492;-60
2021/12/10 05:57:46;;;;;;;7.97;2.50;;;;;;;2.50;81.82;99125.13;5026129;28;20558;-60
2021/12/10 06:00:19;;;;;;;5.22;2.22;;;;;;;2.49;81.66;99123.44;5025511;28;20025;-57
2021/12/10 06:02:45;;;;;;;14.88;2.45;;;;;;;2.45;81.71;99121.81;5026217;28;20507;-60
2021/12/10 06:05:11;;;;;;;11.93;2.10;;;;;;;2.45;81.70;99128.75;5026139;28;20063;-60
2021/12/10 06:07:38;;;;;;;4.95;2.05;;;;;;;2.48;81.81;99129.53;5025449;28;20033;-58
2021/12/10 06:10:05;;;;;;;10.80;2.50;;;;;;;2.50;81.75;99134.69;5028299;28;20075;-61
2021/12/10 06:12:31;;;;;;;7.88;2.10;;;;;;;2.52;81.64;99136.34;5029363;28;20045;-58
2021/12/10 06:14:56;;;;;;;6.95;2.55;;;;;;;2.53;81.51;99139.81;5023867;28;20491;-59
2021/12/10 06:17:22;;;;;;;6.15;2.63;;;;;;;2.50;81.40;99139.91;5025802;28;20063;-61
2021/12/10 06:19:47;;;;;;;10.15;2.70;;;;;;;2.49;81.23;99145.97;5022656;28;20026;-58
2021/12/10 06:22:12;;;;;;;8.43;2.20;;;;;;;2.52;81.18;99145.88;5025198;28;20050;-59
2021/12/10 06:24:38;;;;;;;6.97;2.17;;;;;;;2.53;81.17;99143.25;5007480;28;20021;-60
2021/12/10 06:27:03;;;;;;;9.65;2.80;;;;;;;2.55;81.03;99142.34;5024534;28;20668;-58
2021/12/10 06:29:29;;;;;;;8.05;2.30;;;;;;;2.53;80.89;99138.03;5024746;28;20079;-60
2021/12/10 06:31:55;;;;;;;11.70;2.80;;;;;;;2.47;81.61;99138.22;5024118;28;20037;-60
2021/12/10 06:34:20;;;;;;;5.43;2.10;;;;;;;2.51;81.58;99139.84;5025330;28;20033;-61
2021/12/10 06:36:48;;;;;;;11.38;3.05;;;;;;;2.48;81.85;99139.94;5024162;28;20045;-61
2021/12/10 06:39:19;;;;;;;8.73;1.98;;;;;;;2.47;82.25;99139.97;5025544;28;20507;-59
2021/12/10 06:41:45;;;;;;;3.55;2.05;;;;;;;2.46;82.64;99141.72;5023986;28;20017;-61
2021/12/10 06:44:10;;;;;;;10.18;2.80;;;;;;;2.40;82.70;99141.88;5025501;28;20040;-59
2021/12/10 06:46:35;;;;;;;11.38;2.88;;;;;;;2.36;83.25;99141.13;5023248;28;20045;-61
2021/12/10 06:49:01;;;;;;;6.28;2.17;;;;;;;2.38;83.17;99143.69;5025031;28;20100;-60
2021/12/10 06:51:26;;;;;;;9.60;2.67;;;;;;;2.32;83.16;99144.69;5027590;28;20025;-59
2021/12/10 06:53:52;;;;;;;12.15;2.97;;;;;;;2.27;83.41;99142.25;5043711;28;20270;-60
2021/12/10 06:56:19;;;;;;;9.25;3.00;;;;;;;2.27;83.43;99146.56;5042159;28;20025;-60
2021/12/10 06:58:44;;;;;;;10.57;3.28;;;;;;;2.23;83.19;99145.78;5025760;28;20634;-61
2021/12/10 07:01:18;;;;;;;11.65;3.00;;;;;;;2.21;83.23;99147.59;5024009;28;20025;-60
2021/12/10 07:03:45;;;;;;;10.95;3.53;;;;;;;2.24;82.80;99150.13;5044567;28;20217;-60
2021/12/10 07:06:10;;;;;;;25.75;3.72;;;;;;;2.29;82.54;99150.00;5044361;28;20021;-59
2021/12/10 07:08:37;;;;;;;13.20;3.03;;;;;;;2.25;82.52;99146.63;5043649;28;20079;-59
2021/12/10 07:11:04;;;;;;;6.70;3.15;;;;;;;2.24;82.17;99151.84;5043816;28;20056;-58
2021/12/10 07:13:33;;;;;;;10.30;3.13;;;;;;;2.24;82.18;99144.06;5028536;28;20108;-59
2021/12/10 07:15:58;;;;;;;11.98;3.30;;;;;;;2.26;82.07;99144.88;5023299;28;20061;-59
2021/12/10 07:18:25;;;;;;;8.88;3.00;;;;;;;2.24;81.77;99152.72;5023308;28;20068;-61
2021/12/10 07:20:52;;;;;;;12.85;3.63;;;;;;;2.22;81.41;99149.28;5024550;28;20038;-59
2021/12/10 07:23:18;;;;;;;8.27;3.00;;;;;;;2.35;81.21;99154.16;5022713;28;20488;-60
2021/12/10 07:25:44;;;;;;;5.65;3.15;;;;;;;2.34;81.14;99152.44;5019761;28;20068;-60
2021/12/10 07:28:10;;;;;;;14.57;3.42;;;;;;;2.31;81.23;99155.13;5020305;28;20152;-62
2021/12/10 07:30:36;;;;;;;9.50;2.83;;;;;;;2.31;81.03;99157.72;5017748;28;20341;-62
2021/12/10 07:33:01;;;;;;;9.40;2.92;;;;;;;2.32;81.31;99159.44;5013604;28;20056;-61
2021/12/10 07:35:26;;;;;;;10.15;3.38;;;;;;;2.33;81.45;99164.59;5022990;28;20044;-62
2021/12/10 07:37:52;;;;;;;11.80;2.95;;;;;;;2.37;80.92;99163.63;5022134;28;20460;-61
2021/12/10 07:40:24;;;;;;;12.65;3.45;;;;;;;2.35;81.41;99168.00;5018208;28;20384;-63
2021/12/10 07:42:50;;;;;;;10.95;2.72;;;;;;;2.32;81.28;99167.25;5017812;28;20504;-63
2021/12/10 07:45:17;;;;;;;9.18;2.53;;;;;;;2.40;81.35;99173.94;5014492;28;20108;-62
2021/12/10 07:47:42;;;;;;;7.60;2.85;;;;;;;2.39;81.46;99173.97;5023731;28;20128;-61
2021/12/10 07:50:14;;;;;;;7.88;2.78;;;;;;;2.33;81.71;99171.53;5017920;28;20116;-62
2021/12/10 07:52:40;;;;;;;7.85;2.88;;;;;;;2.32;81.91;99170.69;5024161;28;20057;-61
2021/12/10 07:55:09;;;;;;;10.27;3.17;;;;;;;2.31;82.26;99168.13;5023818;28;20211;-58
2021/12/10 07:57:34;;;;;;;15.18;3.65;;;;;;;2.28;82.34;99176.84;5002711;28;20436;-57
2021/12/10 07:59:59;;;;;;;10.93;3.13;;;;;;;2.25;82.87;99179.53;4990709;28;20056;-63
2021/12/10 08:02:25;;;;;;;15.05;4.32;;;;;;;2.25;83.04;99182.13;5015508;28;20105;-55
2021/12/10 08:04:50;;;;;;;10.60;3.22;;;;;;;2.30;83.07;99172.50;5012871;28;20030;-57
2021/12/10 08:07:17;;;;;;;13.20;3.58;;;;;;;2.24;83.56;99176.09;5022053;28;20037;-61
2021/12/10 08:09:43;;;;;;;13.90;3.45;;;;;;;2.25;83.41;99171.75;5011394;28;20080;-63
2021/12/10 08:12:09;;;;;;;10.70;3.60;;;;;;;2.26;83.25;99173.47;5011309;28;20392;-57
2021/12/10 08:14:34;;;;;;;11.63;3.47;;;;;;;2.25;83.45;99174.34;5022893;28;20075;-57
2021/12/10 08:16:59;;;;;;;11.95;3.20;;;;;;;2.25;83.46;99172.59;5022800;28;20383;-62
2021/12/10 08:19:25;;;;;;;18.50;3.22;;;;;;;2.22;83.59;99177.88;5020032;28;20025;-54
2021/12/10 08:21:51;;;;;;;9.85;3.22;;;;;;;2.29;83.36;99185.53;5010624;28;20022;-58
2021/12/10 08:24:16;;;;;;;11.23;2.58;;;;;;;2.33;83.10;99187.13;5002012;28;20021;-61
2021/12/10 08:26:42;;;;;;;12.90;3.08;;;;;;;2.37;82.99;99183.56;5024660;28;20454;-58
2021/12/10 08:29:08;;;;;;;10.05;3.40;;;;;;;2.35;83.22;99188.78;5013715;28;20113;-61
2021/12/10 08:31:34;;;;;;;13.43;2.92;;;;;;;2.31;83.07;99184.56;5013935;28;20033;-62
2021/12/10 08:33:59;;;;;;;11.63;3.35;;;;;;;2.36;83.21;99185.31;5015186;28;20079;-60
2021/12/10 08:36:25;;;;;;;17.35;3.22;;;;;;;2.41;82.85;99190.41;5012573;28;20076;-61
2021/12/10 08:38:52;;;;;;;17.92;5.07;;;;;;;2.45;82.82;99197.22;5014045;28;20052;-61
2021/12/10 08:41:21;;;;;;;12.05;3.35;;;;;;;2.39;83.31;99187.84;5014186;28;20022;-60
2021/12/10 08:43:47;;;;;;;9.35;3.15;;;;;;;2.47;83.58;99198.00;5010899;28;20029;-63
2021/12/10 08:46:14;;;;;;;15.15;3.35;;;;;;;2.46;82.91;99200.66;5019110;28;20017;-61
2021/12/10 08:48:40;;;;;;;8.68;3.50;;;;;;;2.45;83.13;99197.22;5022952;28;20025;-60
2021/12/10 08:51:15;;;;;;;13.05;3.17;;;;;;;2.40;83.25;99199.06;5020293;28;20169;-57
2021/12/10 08:53:40;;;;;;;5.80;2.92;;;;;;;2.46;83.64;99203.25;5023821;28;20033;-60
2021/12/10 08:56:06;;;;;;;6.63;3.50;;;;;;;2.51;83.31;99201.41;5019496;28;20028;-57
2021/12/10 08:58:32;;;;;;;12.25;2.67;;;;;;;2.55;83.26;99204.75;5023685;28;20029;-59
2021/12/10 09:01:01;;;;;;;15.35;3.17;;;;;;;2.49;83.52;99208.38;5020493;28;20036;-60
2021/12/10 09:03:26;;;;;;;10.07;2.70;;;;;;;2.51;83.27;99207.47;5022638;28;20025;-58
2021/12/10 09:05:52;;;;;;;7.85;3.03;;;;;;;2.53;83.37;99210.84;5021621;28;20026;-59
2021/12/10 09:08:18;;;;;;;11.63;3.17;;;;;;;2.46;83.61;99226.66;5023287;28;20022;-59
2021/12/10 09:10:45;;;;;;;7.25;2.83;;;;;;;2.52;83.61;99224.75;5022262;28;20032;-59
2021/12/10 09:13:14;;;;;;;12.73;3.83;;;;;;;2.53;83.29;99226.47;5023891;28;20056;-58
2021/12/10 09:15:45;;;;;;;14.65;3.33;;;;;;;2.52;83.44;99231.69;5023291;28;20038;-58
2021/12/10 09:18:11;;;;;;;12.52;3.50;;;;;;;2.51;83.50;99230.00;5027629;28;20049;-59
2021/12/10 09:20:40;;;;;;;7.78;3.58;;;;;;;2.49;83.57;99232.63;5026479;28;20353;-59
2021/12/10 09:23:07;;;;;;;7.88;3.13;;;;;;;2.53;83.88;99234.25;5026072;28;20120;-60
2021/12/10 09:25:33;;;;;;;11.98;3.35;;;;;;;2.48;83.90;99240.47;5020726;28;20518;-59
2021/12/10 09:27:59;;;;;;;7.00;2.70;;;;;;;2.52;83.71;99253.38;5039332;28;20460;-58
2021/12/10 09:30:26;;;;;;;14.25;3.53;;;;;;;2.52;83.90;99244.69;5044456;28;20068;-59
2021/12/10 09:32:53;;;;;;;8.40;3.10;;;;;;;2.53;83.97;99252.47;5031387;28;20037;-57
2021/12/10 09:35:22;;;;;;;14.23;3.50;;;;;;;2.56;84.19;99256.72;5025421;28;20442;-59
2021/12/10 09:37:48;;;;;;;10.57;3.33;;;;;;;2.63;83.55;99255.69;5006107;28;20135;-59
2021/12/10 09:40:19;;;;;;;11.18;3.30;;;;;;;2.56;83.63;99253.28;5006997;28;20056;-61
2021/12/10 09:42:45;;;;;;;14.65;3.55;;;;;;;2.58;83.54;99259.28;5025827;28;20105;-60
2021/12/10 09:45:12;;;;;;;12.45;3.65;;;;;;;2.52;83.26;99252.50;5025332;28;20108;-58
2021/12/10 09:47:38;;;;;;;12.18;3.75;;;;;;;2.55;83.13;99256.75;5025933;28;20392;-63
2021/12/10 09:50:05;;;;;;;9.00;3.80;;;;;;;2.56;82.95;99261.09;5025348;28;20314;-65
2021/12/10 09:52:30;;;;;;;11.43;3.50;;;;;;;2.59;83.21;99271.41;5025720;28;20044;-57
2021/12/10 09:54:56;;;;;;;12.27;4.05;;;;;;;2.59;83.15;99266.22;5026696;28;20104;-56
2021/12/10 09:57:26;;;;;;;12.77;3.78;;;;;;;2.58;83.54;99269.69;5029508;28;20030;-59
2021/12/10 09:59:53;;;;;;;9.88;3.20;;;;;;;2.62;83.30;99277.38;5025287;28;20032;-59
2021/12/10 10:02:19;;;;;;;11.48;3.83;;;;;;;2.61;83.39;99274.81;5024928;28;20026;-57
2021/12/10 10:04:49;;;;;;;22.27;3.88;;;;;;;2.58;83.21;99273.16;5020291;28;20017;-64
2021/12/10 10:07:19;;;;;;;8.90;3.58;;;;;;;2.55;83.36;99269.75;5017511;28;20069;-63
2021/12/10 10:09:48;;;;;;;9.50;3.25;;;;;;;2.65;83.43;99271.25;5013020;28;20382;-61
2021/12/10 10:12:17;;;;;;;12.63;3.90;;;;;;;2.65;83.58;99279.06;5009297;28;20112;-58
2021/12/10 10:14:43;;;;;;;10.90;4.00;;;;;;;2.69;83.31;99274.63;5018722;28;20184;-59
2021/12/10 10:17:10;;;;;;;19.73;3.53;;;;;;;2.75;83.20;99277.91;5019005;28;20586;-60
2021/12/10 10:19:36;;;;;;;13.60;3.83;;;;;;;2.77;83.10;99281.31;5025509;28;20040;-58
2021/12/10 10:22:05;;;;;;;16.45;3.90;;;;;;;2.68;83.47;99276.34;5007453;28;20026;-63
2021/12/10 10:24:31;;;;;;;16.33;4.20;;;;;;;2.68;83.89;99283.31;5033028;28;21549;-59
2021/12/10 10:27:07;;;;;;;13.25;4.05;;;;;;;2.77;83.56;99289.13;5019063;28;20388;-61
2021/12/10 10:29:38;;;;;;;15.18;4.10;;;;;;;2.75;83.94;99288.31;5008252;28;20038;-61
2021/12/10 10:32:10;;;;;;;11.27;4.22;;;;;;;2.76;84.05;99284.81;5007538;28;20092;-62
2021/12/10 10:34:46;;;;;;;13.75;3.55;;;;;;;2.86;83.70;99272.41;5006524;28;20099;-60
2021/12/10 10:37:12;;;;;;;14.20;3.72;;;;;;;2.85;83.89;99277.66;5005624;28;20053;-60
2021/12/10 10:39:41;;;;;;;17.52;4.43;;;;;;;2.75;83.82;99283.13;5005503;28;20029;-60
2021/12/10 10:42:12;;;;;;;10.38;4.35;;;;;;;2.70;84.37;99282.38;5023058;28;20021;-61
2021/12/10 10:44:38;;;;;;;13.85;4.57;;;;;;;2.65;84.48;99286.84;5023424;28;20060;-60
2021/12/10 10:47:04;;;;;;;10.77;4.70;;;;;;;2.70;85.06;99286.72;5023310;28;20646;-61
2021/12/10 10:49:33;;;;;;;14.02;4.18;;;;;;;2.77;84.73;99289.13;5020144;28;20025;-62
2021/12/10 10:52:11;;;;;;;7.88;3.97;;;;;;;2.84;84.57;99288.97;5010605;28;20037;-62
2021/12/10 10:54:37;;;;;;;13.90;5.07;;;;;;;2.86;84.36;99294.97;5024558;28;20088;-58
2021/12/10 10:57:11;;;;;;;11.70;4.55;;;;;;;2.92;84.05;99292.19;5025915;28;20154;-61
2021/12/10 10:59:37;;;;;;;9.15;4.82;;;;;;;2.95;83.99;99292.09;5031345;28;20413;-59
2021/12/10 11:02:09;;;;;;;18.88;5.47;;;;;;;2.97;83.85;99298.13;5009127;28;20064;-60
2021/12/10 11:04:41;;;;;;;15.52;4.95;;;;;;;3.03;83.55;99299.72;5016958;28;20033;-59
2021/12/10 11:07:09;;;;;;;12.18;4.13;;;;;;;3.03;83.59;99291.91;5024101;28;20060;-60
2021/12/10 11:09:42;;;;;;;16.23;6.03;;;;;;;3.08;83.50;99295.25;5019691;28;20163;-61
2021/12/10 11:12:13;;;;;;;9.88;4.65;;;;;;;3.08;83.86;99297.84;4986237;28;20072;-60
2021/12/10 11:14:44;;;;;;;14.55;5.72;;;;;;;3.04;83.91;99293.59;4986331;28;20053;-59
2021/12/10 11:17:14;;;;;;;22.75;6.97;;;;;;;3.06;83.80;99290.97;4978750;28;20022;-60
2021/12/10 11:19:43;;;;;;;14.80;5.50;;;;;;;3.06;83.97;99301.38;4953334;28;20056;-60
2021/12/10 11:22:11;;;;;;;16.10;5.70;;;;;;;3.09;83.94;99301.28;4958157;28;20022;-62
2021/12/10 11:24:46;;;;;;;26.00;6.85;;;;;;;3.11;84.26;99308.19;4970148;28;20034;-61
2021/12/10 11:27:19;;;;;;;17.65;6.78;;;;;;;3.25;83.35;99306.94;4961324;28;20397;-60
2021/12/10 11:30:02;;;;;;;17.58;7.43;;;;;;;3.37;83.38;99308.34;4973288;28;20436;-61
2021/12/10 11:32:52;;;;;;;13.35;6.00;;;;;;;3.52;83.02;99315.69;4977739;28;20022;-58
2021/12/10 11:35:23;;;;;;;11.60;5.90;;;;;;;3.62;82.29;99312.81;4980277;28;20030;-59
2021/12/10 11:37:51;;;;;;;13.90;6.90;;;;;;;3.63;82.13;99314.53;4981156;28;20183;-60
2021/12/10 11:40:51;;;;;;;17.23;7.03;;;;;;;3.65;81.55;99313.56;4980453;28;20042;-61
2021/12/10 11:48:45;;;;;;;11.70;5.30;;;;;;;3.84;80.17;99320.84;5001341;28;20040;-62
2021/12/10 11:51:12;;;;;;;24.42;6.50;;;;;;;3.88;80.43;99329.41;5001337;28;20116;-58